createdAt,value
2018-12-08T00:01:19.837Z,3.90
2018-12-08T00:03:48.807Z,3.50
2018-12-08T00:06:18.048Z,4.87
2018-12-08T00:08:47.515Z,4.23
2018-12-08T00:11:16.913Z,4.73
2018-12-08T00:13:46.207Z,3.80
2018-12-08T00:16:15.182Z,4.27
2018-12-08T00:18:43.996Z,4.20
2018-12-08T00:21:13.259Z,4.63
2018-12-08T00:23:42.608Z,4.03
2018-12-08T00:26:11.518Z,5.03
2018-12-08T00:28:40.708Z,3.67
2018-12-08T00:31:15.295Z,4.07
2018-12-08T00:33:44.527Z,3.53
2018-12-08T00:36:14.064Z,3.07
2018-12-08T00:38:43.427Z,4.23
2018-12-08T00:41:12.734Z,3.77
2018-12-08T00:43:41.678Z,4.70
2018-12-08T00:46:10.513Z,3.50
2018-12-08T00:48:39.951Z,3.50
2018-12-08T00:51:09.270Z,3.27
2018-12-08T00:53:38.673Z,3.57
2018-12-08T00:56:07.990Z,4.87
2018-12-08T00:58:37.292Z,3.65
2018-12-08T01:01:13.228Z,4.20
2018-12-08T01:03:42.571Z,4.27
2018-12-08T01:06:13.291Z,4.83
2018-12-08T01:08:42.615Z,3.93
2018-12-08T01:11:11.554Z,4.10
2018-12-08T01:13:40.779Z,3.40
2018-12-08T01:16:09.770Z,3.03
2018-12-08T01:18:38.967Z,3.27
2018-12-08T01:21:08.278Z,5.57
2018-12-08T01:23:37.606Z,3.62
2018-12-08T01:26:06.973Z,3.50
2018-12-08T01:28:36.299Z,4.07
2018-12-08T01:31:05.191Z,4.17
2018-12-08T01:33:34.031Z,3.97
2018-12-08T01:36:03.262Z,3.90
2018-12-08T01:38:32.647Z,4.07
2018-12-08T01:41:02.092Z,3.07
2018-12-08T01:43:31.436Z,3.53
2018-12-08T01:46:00.383Z,3.90
2018-12-08T01:48:29.599Z,3.70
2018-12-08T01:50:58.940Z,4.43
2018-12-08T01:53:28.285Z,3.70
2018-12-08T01:55:57.726Z,3.30
2018-12-08T01:58:27.117Z,4.33
2018-12-08T02:00:56.532Z,4.03
2018-12-08T02:03:25.852Z,3.77
2018-12-08T02:05:55.315Z,4.03
2018-12-08T02:08:24.675Z,4.00
2018-12-08T02:10:53.992Z,3.50
2018-12-08T02:13:23.303Z,3.60
2018-12-08T02:15:52.722Z,3.53
2018-12-08T02:18:22.082Z,3.57
2018-12-08T02:20:51.394Z,3.73
2018-12-08T02:23:20.354Z,3.43
2018-12-08T02:25:49.586Z,4.10
2018-12-08T02:28:18.925Z,4.77
2018-12-08T02:30:48.384Z,4.53
2018-12-08T02:33:17.339Z,4.63
2018-12-08T02:35:46.561Z,4.03
2018-12-08T02:38:16.340Z,5.00
2018-12-08T02:40:45.729Z,3.20
2018-12-08T02:43:15.075Z,4.80
2018-12-08T02:45:44.363Z,3.40
2018-12-08T02:48:13.655Z,4.20
2018-12-08T02:50:42.949Z,3.73
2018-12-08T02:53:12.279Z,4.03
2018-12-08T02:55:41.740Z,3.53
2018-12-08T02:58:10.775Z,4.57
2018-12-08T03:00:40.024Z,4.23
2018-12-08T03:03:09.422Z,3.77
2018-12-08T03:05:38.786Z,4.30
2018-12-08T03:08:08.106Z,4.27
2018-12-08T03:10:37.449Z,5.25
2018-12-08T03:13:06.755Z,4.30
2018-12-08T03:15:36.052Z,4.50
2018-12-08T03:18:05.351Z,3.77
2018-12-08T03:20:34.652Z,3.37
2018-12-08T03:23:03.514Z,3.87
2018-12-08T03:28:26.506Z,5.30
2018-12-08T03:30:55.853Z,4.07
2018-12-08T03:33:25.598Z,4.90
2018-12-08T03:35:54.875Z,3.70
2018-12-08T03:38:24.145Z,4.70
2018-12-08T03:40:53.396Z,4.57
2018-12-08T03:43:22.663Z,3.60
2018-12-08T03:45:51.583Z,4.47
2018-12-08T03:48:20.799Z,4.13
2018-12-08T03:50:49.725Z,4.13
2018-12-08T03:53:18.990Z,5.17
2018-12-08T03:55:48.262Z,4.80
2018-12-08T03:58:17.559Z,4.30
2018-12-08T04:00:46.866Z,3.97
2018-12-08T04:03:16.155Z,4.90
2018-12-08T04:05:45.089Z,3.83
2018-12-08T04:08:14.370Z,4.63
2018-12-08T04:10:43.699Z,4.10
2018-12-08T04:13:13.053Z,3.83
2018-12-08T04:15:42.260Z,3.97
2018-12-08T04:18:11.504Z,4.90
2018-12-08T04:20:40.442Z,5.20
2018-12-08T04:23:09.650Z,4.43
2018-12-08T04:25:38.947Z,4.85
2018-12-08T04:28:08.275Z,4.73
2018-12-08T04:30:37.671Z,4.40
2018-12-08T04:33:06.944Z,5.00
2018-12-08T04:35:36.271Z,3.93
2018-12-08T04:38:05.567Z,3.93
2018-12-08T04:40:34.928Z,4.37
2018-12-08T04:43:04.287Z,4.03
2018-12-08T04:45:33.653Z,3.70
2018-12-08T04:48:03.012Z,4.77
2018-12-08T04:50:31.978Z,4.57
2018-12-08T04:53:01.209Z,3.87
2018-12-08T04:55:30.096Z,4.37
2018-12-08T04:57:59.325Z,3.93
2018-12-08T05:00:28.760Z,4.00
2018-12-08T05:02:57.670Z,4.57
2018-12-08T05:05:27.020Z,4.30
2018-12-08T05:07:56.938Z,5.17
2018-12-08T05:10:26.115Z,5.10
2018-12-08T05:12:55.400Z,4.80
2018-12-08T05:15:24.614Z,4.47
2018-12-08T05:17:53.961Z,3.93
2018-12-08T05:20:22.907Z,4.10
2018-12-08T05:22:51.766Z,3.63
2018-12-08T05:25:21.057Z,5.07
2018-12-08T05:27:50.028Z,4.70
2018-12-08T05:30:19.321Z,5.50
2018-12-08T05:32:48.739Z,3.93
2018-12-08T05:35:18.053Z,4.73
2018-12-08T05:37:47.341Z,4.30
2018-12-08T05:40:16.672Z,4.00
2018-12-08T05:42:46.045Z,3.67
2018-12-08T05:45:15.365Z,4.37
2018-12-08T05:47:44.683Z,4.27
2018-12-08T05:50:14.043Z,4.30
2018-12-08T05:52:43.355Z,4.30
2018-12-08T05:55:12.757Z,5.20
2018-12-08T05:57:42.139Z,4.13
2018-12-08T06:00:16.759Z,3.97
2018-12-08T06:02:45.983Z,3.77
2018-12-08T06:05:15.358Z,4.00
2018-12-08T06:07:44.615Z,4.87
2018-12-08T06:10:13.907Z,5.07
2018-12-08T06:12:43.367Z,3.67
2018-12-08T06:15:12.780Z,4.10
2018-12-08T06:17:42.103Z,5.50
2018-12-08T06:20:11.047Z,4.10
2018-12-08T06:22:40.268Z,3.77
2018-12-08T06:25:15.324Z,4.10
2018-12-08T06:27:57.382Z,5.17
2018-12-08T06:30:26.841Z,3.97
2018-12-08T06:32:56.149Z,3.33
2018-12-08T06:35:25.434Z,4.57
2018-12-08T06:37:54.800Z,4.43
2018-12-08T06:40:29.215Z,4.93
2018-12-08T06:42:55.354Z,4.37
2018-12-08T06:45:25.091Z,4.43
2018-12-08T06:47:54.389Z,4.20
2018-12-08T06:50:24.096Z,4.73
2018-12-08T06:52:53.399Z,5.03
2018-12-08T06:55:22.748Z,4.00
2018-12-08T06:57:52.047Z,5.08
2018-12-08T07:00:21.368Z,5.33
2018-12-08T07:02:50.672Z,4.93
2018-12-08T07:05:20.003Z,4.20
2018-12-08T07:07:49.377Z,5.13
2018-12-08T07:10:18.669Z,5.67
2018-12-08T07:12:47.906Z,4.40
2018-12-08T07:15:17.244Z,5.10
2018-12-08T07:17:46.539Z,4.43
2018-12-08T07:20:15.868Z,5.13
2018-12-08T07:22:45.159Z,3.70
2018-12-08T07:25:14.480Z,5.07
2018-12-08T07:27:43.823Z,3.70
2018-12-08T07:30:13.172Z,5.20
2018-12-08T07:32:42.535Z,5.90
2018-12-08T07:35:11.484Z,5.00
2018-12-08T07:37:40.678Z,6.10
2018-12-08T07:40:09.611Z,4.40
2018-12-08T07:42:38.440Z,6.47
2018-12-08T07:45:08.308Z,5.23
2018-12-08T07:47:37.671Z,4.83
2018-12-08T07:50:09.216Z,5.57
2018-12-08T07:52:38.551Z,4.80
2018-12-08T07:55:08.348Z,4.60
2018-12-08T07:57:38.329Z,4.65
2018-12-08T08:00:11.352Z,4.97
2018-12-08T08:02:41.235Z,5.65
2018-12-08T08:05:10.991Z,4.97
2018-12-08T08:07:40.547Z,5.30
2018-12-08T08:10:10.811Z,6.37
2018-12-08T08:12:40.172Z,5.83
2018-12-08T08:15:10.525Z,5.27
2018-12-08T08:17:39.914Z,5.00
2018-12-08T08:20:11.102Z,5.40
2018-12-08T08:22:40.535Z,5.13
2018-12-08T08:25:11.581Z,4.47
2018-12-08T08:27:40.808Z,4.80
2018-12-08T08:30:11.647Z,5.73
2018-12-08T08:32:40.949Z,5.13
2018-12-08T08:35:10.267Z,6.23
2018-12-08T08:37:39.654Z,5.57
2018-12-08T08:40:10.793Z,7.67
2018-12-08T08:42:40.195Z,5.67
2018-12-08T08:45:09.943Z,6.27
2018-12-08T08:47:38.979Z,5.67
2018-12-08T08:50:10.414Z,6.23
2018-12-08T08:52:40.320Z,5.00
2018-12-08T08:55:09.684Z,6.90
2018-12-08T08:57:39.007Z,5.83
2018-12-08T09:00:08.954Z,6.30
2018-12-08T09:02:37.916Z,5.93
2018-12-08T09:05:08.355Z,5.77
2018-12-08T09:07:37.429Z,5.87
2018-12-08T09:10:09.992Z,6.00
2018-12-08T09:12:39.370Z,5.40
2018-12-08T09:15:09.416Z,5.00
2018-12-08T09:17:38.396Z,6.37
2018-12-08T09:20:10.326Z,4.73
2018-12-08T09:22:40.169Z,4.90
2018-12-08T09:25:10.439Z,6.03
2018-12-08T09:27:39.806Z,6.15
2018-12-08T09:30:11.036Z,5.87
2018-12-08T09:32:40.532Z,5.80
2018-12-08T09:35:10.049Z,7.33
2018-12-08T09:37:39.479Z,5.67
2018-12-08T09:40:08.549Z,5.17
2018-12-08T09:42:37.422Z,5.47
2018-12-08T09:45:07.311Z,5.17
2018-12-08T09:47:36.288Z,4.53
2018-12-08T09:50:05.747Z,5.13
2018-12-08T09:52:35.087Z,5.50
2018-12-08T09:55:04.333Z,5.90
2018-12-08T09:57:33.590Z,4.75
2018-12-08T10:00:02.720Z,4.67
2018-12-08T10:02:32.000Z,4.47
2018-12-08T10:05:01.594Z,5.80
2018-12-08T10:07:30.648Z,5.40
2018-12-08T10:09:59.894Z,5.13
2018-12-08T10:12:29.242Z,4.40
2018-12-08T10:14:59.185Z,4.73
2018-12-08T10:17:28.570Z,5.80
2018-12-08T10:19:57.879Z,5.07
2018-12-08T10:22:27.903Z,5.17
2018-12-08T10:24:57.372Z,5.90
2018-12-08T10:27:26.434Z,5.55
2018-12-08T10:29:55.621Z,6.53
2018-12-08T10:32:24.595Z,4.67
2018-12-08T10:34:53.891Z,5.40
2018-12-08T10:37:22.932Z,4.97
2018-12-08T10:39:51.847Z,5.57
2018-12-08T10:42:21.039Z,4.20
2018-12-08T10:44:50.438Z,4.97
2018-12-08T10:47:20.255Z,4.37
2018-12-08T10:49:49.654Z,4.83
2018-12-08T10:52:19.062Z,5.17
2018-12-08T10:54:47.946Z,4.90
2018-12-08T10:57:16.832Z,5.30
2018-12-08T10:59:45.999Z,5.40
2018-12-08T11:02:20.288Z,5.27
2018-12-08T11:04:49.552Z,7.07
2018-12-08T11:07:19.017Z,5.50
2018-12-08T11:09:48.587Z,6.07
2018-12-08T11:12:17.501Z,6.70
2018-12-08T11:14:46.819Z,5.73
2018-12-08T11:17:16.271Z,6.47
2018-12-08T11:19:45.623Z,5.00
2018-12-08T11:22:14.747Z,7.10
2018-12-08T11:24:44.011Z,5.63
2018-12-08T11:27:13.430Z,6.40
2018-12-08T11:29:42.803Z,5.63
2018-12-08T11:32:12.127Z,5.80
2018-12-08T11:34:41.109Z,7.30
2018-12-08T11:37:10.403Z,4.62
2018-12-08T11:39:39.704Z,6.50
2018-12-08T11:42:09.024Z,5.83
2018-12-08T11:44:38.659Z,5.93
2018-12-08T11:47:07.523Z,5.50
2018-12-08T11:49:36.704Z,5.73
2018-12-08T11:52:06.166Z,5.80
2018-12-08T11:54:35.275Z,4.55
2018-12-08T11:57:04.158Z,4.67
2018-12-08T11:59:33.186Z,5.63
2018-12-08T12:02:03.541Z,4.47
2018-12-08T12:04:32.561Z,5.30
2018-12-08T12:07:04.113Z,4.03
2018-12-08T12:09:33.077Z,4.70
2018-12-08T12:12:03.305Z,5.40
2018-12-08T12:14:48.101Z,6.37
2018-12-08T12:17:17.577Z,5.23
2018-12-08T12:19:46.943Z,5.85
2018-12-08T12:22:16.386Z,5.07
2018-12-08T12:24:45.313Z,5.10
2018-12-08T12:27:14.344Z,6.70
2018-12-08T12:29:44.262Z,5.87
2018-12-08T12:32:13.560Z,5.70
2018-12-08T12:34:43.714Z,5.20
2018-12-08T12:37:14.905Z,6.13
2018-12-08T12:39:45.353Z,5.83
2018-12-08T12:42:14.298Z,5.13
2018-12-08T12:44:43.572Z,5.90
2018-12-08T12:47:13.443Z,5.53
2018-12-08T12:49:42.866Z,5.10
2018-12-08T12:52:12.176Z,5.30
2018-12-08T12:54:41.555Z,3.90
2018-12-08T12:57:10.923Z,5.80
2018-12-08T12:59:40.005Z,4.37
2018-12-08T13:02:08.862Z,4.37
2018-12-08T13:04:37.667Z,3.57
2018-12-08T13:07:06.531Z,4.70
2018-12-08T13:09:35.768Z,4.28
2018-12-08T13:12:04.815Z,3.73
2018-12-08T13:14:34.075Z,3.70
2018-12-08T13:17:03.488Z,3.73
2018-12-08T13:19:32.461Z,3.77
2018-12-08T13:22:01.436Z,5.27
2018-12-08T13:24:31.901Z,4.25
2018-12-08T13:27:01.577Z,4.20
2018-12-08T13:29:30.550Z,3.87
2018-12-08T13:31:59.821Z,2.77
2018-12-08T13:34:30.134Z,3.93
2018-12-08T13:36:59.462Z,4.17
2018-12-08T13:39:28.614Z,3.43
2018-12-08T13:41:57.516Z,2.27
2018-12-08T13:44:31.947Z,2.97
2018-12-08T13:47:01.155Z,3.37
2018-12-08T13:49:30.091Z,4.08
2018-12-08T13:51:59.353Z,3.63
2018-12-08T13:55:00.384Z,3.90
2018-12-08T13:57:29.668Z,3.60
2018-12-08T13:59:59.064Z,3.40
2018-12-08T14:02:28.483Z,3.53
2018-12-08T14:04:57.340Z,4.50
2018-12-08T14:07:26.354Z,3.10
2018-12-08T14:09:55.633Z,3.00
2018-12-08T14:12:25.007Z,2.90
2018-12-08T14:14:54.317Z,3.33
2018-12-08T14:17:23.535Z,2.77
2018-12-08T14:19:53.040Z,3.60
2018-12-08T14:22:22.440Z,4.30
2018-12-08T14:24:52.244Z,9.20
2018-12-08T14:27:21.940Z,8.80
2018-12-08T14:29:50.982Z,4.90
2018-12-08T14:32:20.632Z,4.10
2018-12-08T14:34:49.606Z,4.30
2018-12-08T14:37:18.471Z,3.50
2018-12-08T14:39:47.405Z,4.40
2018-12-08T14:42:16.723Z,4.53
2018-12-08T14:44:46.065Z,3.73
2018-12-08T14:47:15.428Z,3.47
2018-12-08T14:49:45.031Z,4.07
2018-12-08T14:52:15.263Z,4.70
2018-12-08T14:54:44.665Z,3.30
2018-12-08T14:57:14.082Z,2.47
2018-12-08T14:59:44.126Z,3.07
2018-12-08T15:02:13.380Z,2.70
2018-12-08T15:04:42.764Z,3.17
2018-12-08T15:07:12.408Z,3.87
2018-12-08T15:09:41.491Z,5.17
2018-12-08T15:12:11.972Z,4.57
2018-12-08T15:14:41.425Z,4.37
2018-12-08T15:17:11.251Z,4.87
2018-12-08T15:19:41.052Z,5.37
2018-12-08T15:22:10.080Z,6.07
2018-12-08T15:24:38.961Z,5.58
2018-12-08T15:27:08.347Z,5.23
2018-12-08T15:29:37.363Z,5.40
2018-12-08T15:32:06.600Z,5.27
2018-12-08T15:34:35.908Z,5.97
2018-12-08T15:37:05.340Z,6.57
2018-12-08T15:39:34.671Z,6.37
2018-12-08T15:42:04.018Z,7.97
2018-12-08T15:44:33.299Z,6.50
2018-12-08T15:47:02.772Z,6.90
2018-12-08T15:49:31.660Z,6.20
2018-12-08T15:52:00.444Z,6.07
2018-12-08T15:54:29.613Z,5.60
2018-12-08T15:56:58.951Z,6.60
2018-12-08T15:59:27.806Z,4.73
2018-12-08T16:01:57.008Z,5.20
2018-12-08T16:04:25.883Z,4.73
2018-12-08T16:06:55.190Z,4.80
2018-12-08T16:09:24.127Z,4.83
2018-12-08T16:11:53.284Z,4.63
2018-12-08T16:14:22.155Z,4.87
2018-12-08T16:16:51.336Z,6.13
2018-12-08T16:19:20.278Z,6.97
2018-12-08T16:21:49.435Z,3.93
2018-12-08T16:24:18.323Z,4.63
2018-12-08T16:26:47.491Z,4.17
2018-12-08T16:29:16.426Z,4.30
2018-12-08T16:31:45.255Z,3.63
2018-12-08T16:34:14.691Z,3.83
2018-12-08T16:36:43.618Z,4.17
2018-12-08T16:39:12.519Z,4.87
2018-12-08T16:41:41.811Z,4.20
2018-12-08T16:44:11.076Z,5.13
2018-12-08T16:46:40.363Z,5.63
2018-12-08T16:49:09.331Z,4.87
2018-12-08T16:51:38.287Z,4.33
2018-12-08T16:54:07.520Z,5.47
2018-12-08T16:56:37.318Z,5.27
2018-12-08T16:59:06.138Z,5.13
2018-12-08T17:01:35.393Z,4.70
2018-12-08T17:04:04.335Z,5.50
2018-12-08T17:06:33.555Z,4.90
2018-12-08T17:09:03.230Z,4.97
2018-12-08T17:11:32.143Z,4.53
2018-12-08T17:14:01.291Z,3.80
2018-12-08T17:16:30.599Z,3.92
2018-12-08T17:18:59.916Z,3.30
2018-12-08T17:21:28.976Z,3.93
2018-12-08T17:23:58.317Z,5.20
2018-12-08T17:26:27.361Z,6.17
2018-12-08T17:28:56.178Z,5.17
2018-12-08T17:31:25.047Z,5.13
2018-12-08T17:33:54.340Z,6.53
2018-12-08T17:36:23.795Z,7.73
2018-12-08T17:38:53.119Z,5.57
2018-12-08T17:41:22.558Z,5.87
2018-12-08T17:43:51.880Z,5.93
2018-12-08T17:46:21.283Z,5.33
2018-12-08T17:48:50.350Z,5.50
2018-12-08T17:51:20.037Z,5.47
2018-12-08T17:53:48.908Z,5.53
2018-12-08T17:56:18.428Z,5.47
2018-12-08T17:58:47.839Z,6.60
2018-12-08T18:01:17.603Z,5.67
2018-12-08T18:03:46.951Z,5.17
2018-12-08T18:06:16.479Z,4.77
2018-12-08T18:08:45.555Z,4.27
2018-12-08T18:11:15.042Z,5.30
2018-12-08T18:13:44.385Z,5.67
2018-12-08T18:16:14.993Z,4.43
2018-12-08T18:18:43.966Z,5.90
2018-12-08T18:21:13.266Z,3.87
2018-12-08T18:23:42.627Z,5.23
2018-12-08T18:26:11.618Z,5.70
2018-12-08T18:28:40.943Z,5.53
2018-12-08T18:31:09.965Z,6.43
2018-12-08T18:33:38.916Z,6.37
2018-12-08T18:36:07.799Z,6.73
2018-12-08T18:38:37.168Z,5.33
2018-12-08T18:41:06.673Z,5.70
2018-12-08T18:43:35.954Z,5.75
2018-12-08T18:46:05.519Z,5.37
2018-12-08T18:48:34.761Z,6.37
2018-12-08T18:51:04.292Z,6.77
2018-12-08T18:53:33.904Z,6.60
2018-12-08T18:56:03.297Z,6.43
2018-12-08T18:58:32.729Z,6.83
2018-12-08T19:01:01.940Z,7.20
2018-12-08T19:03:31.337Z,7.27
2018-12-08T19:06:00.668Z,6.87
2018-12-08T19:08:30.006Z,5.37
2018-12-08T19:10:58.990Z,6.00
2018-12-08T19:13:27.838Z,4.80
2018-12-08T19:15:57.019Z,5.63
2018-12-08T19:18:26.140Z,5.83
2018-12-08T19:20:55.046Z,5.10
2018-12-08T19:23:24.469Z,5.67
2018-12-08T19:25:53.973Z,4.23
2018-12-08T19:28:23.559Z,5.10
2018-12-08T19:30:52.824Z,4.70
2018-12-08T19:33:21.880Z,4.83
2018-12-08T19:35:50.710Z,5.27
2018-12-08T19:38:20.379Z,5.63
2018-12-08T19:40:49.334Z,4.70
2018-12-08T19:43:22.811Z,3.90
2018-12-08T19:45:51.922Z,4.90
2018-12-08T19:48:20.888Z,5.13
2018-12-08T19:50:49.836Z,3.97
2018-12-08T19:53:18.698Z,4.57
2018-12-08T19:55:47.521Z,5.33
2018-12-08T19:58:16.752Z,4.97
2018-12-08T20:00:46.305Z,4.50
2018-12-08T20:03:15.191Z,5.20
2018-12-08T20:05:44.351Z,4.97
2018-12-08T20:08:13.262Z,6.07
2018-12-08T20:10:42.584Z,5.37
2018-12-08T20:13:11.539Z,5.60
2018-12-08T20:15:40.385Z,5.73
2018-12-08T20:18:09.705Z,6.73
2018-12-08T20:20:38.742Z,5.77
2018-12-08T20:23:07.658Z,6.53
2018-12-08T20:25:36.610Z,7.73
2018-12-08T20:28:05.873Z,6.40
2018-12-08T20:30:34.926Z,6.10
2018-12-08T20:33:04.184Z,8.07
2018-12-08T20:35:33.182Z,9.07
2018-12-08T20:38:02.059Z,8.97
2018-12-08T20:40:30.986Z,8.73
2018-12-08T20:43:00.293Z,8.70
2018-12-08T20:45:29.469Z,9.30
2018-12-08T20:48:00.812Z,8.13
2018-12-08T20:50:29.819Z,8.48
2018-12-08T20:52:59.209Z,8.73
2018-12-08T20:55:28.919Z,7.57
2018-12-08T20:57:58.221Z,8.10
2018-12-08T21:00:27.652Z,7.57
2018-12-08T21:02:56.700Z,7.57
2018-12-08T21:05:26.794Z,7.97
2018-12-08T21:07:56.204Z,9.00
2018-12-08T21:10:25.571Z,7.58
2018-12-08T21:12:54.635Z,7.00
2018-12-08T21:15:23.664Z,6.78
2018-12-08T21:17:53.029Z,7.73
2018-12-08T21:20:22.527Z,7.65
2018-12-08T21:22:51.459Z,7.40
2018-12-08T21:25:20.782Z,5.80
2018-12-08T21:27:49.779Z,6.97
2018-12-08T21:30:19.111Z,5.83
2018-12-08T21:32:48.059Z,5.20
2018-12-08T21:35:16.969Z,6.10
2018-12-08T21:37:46.255Z,6.60
2018-12-08T21:40:21.592Z,5.30
2018-12-08T21:42:50.460Z,4.80
2018-12-08T21:45:19.841Z,4.47
2018-12-08T21:47:48.879Z,4.60
2018-12-08T21:50:17.797Z,4.60
2018-12-08T21:52:47.051Z,4.17
2018-12-08T21:55:16.216Z,3.20
2018-12-08T21:57:45.302Z,3.00
2018-12-08T22:00:14.704Z,3.77
2018-12-08T22:02:43.733Z,2.90
2018-12-08T22:05:12.626Z,2.47
2018-12-08T22:07:41.574Z,2.80
2018-12-08T22:10:10.446Z,2.40
2018-12-08T22:12:39.350Z,3.07
2018-12-08T22:15:18.088Z,2.60
2018-12-08T22:17:47.402Z,3.72
2018-12-08T22:20:16.342Z,3.40
2018-12-08T22:22:45.159Z,3.67
2018-12-08T22:25:14.400Z,4.57
2018-12-08T22:27:43.303Z,4.37
2018-12-08T22:30:12.203Z,4.73
2018-12-08T22:32:41.240Z,4.33
2018-12-08T22:35:10.634Z,5.33
2018-12-08T22:37:40.047Z,6.23
2018-12-08T22:40:09.186Z,5.60
2018-12-08T22:42:38.403Z,5.47
2018-12-08T22:45:07.915Z,5.90
2018-12-08T22:47:37.265Z,6.07
2018-12-08T22:50:07.759Z,5.17
2018-12-08T22:52:37.307Z,6.13
2018-12-08T22:55:06.630Z,6.40
2018-12-08T22:57:35.971Z,6.47
2018-12-08T23:00:13.147Z,6.43
2018-12-08T23:02:51.160Z,6.47
2018-12-08T23:05:20.452Z,6.70
2018-12-08T23:07:49.780Z,7.70
2018-12-08T23:10:19.501Z,5.43
2018-12-08T23:12:48.779Z,6.10
2018-12-08T23:15:18.071Z,5.70
2018-12-08T23:17:47.426Z,5.93
2018-12-08T23:20:16.796Z,5.67
2018-12-08T23:22:46.148Z,5.97
2018-12-08T23:25:15.467Z,6.47
2018-12-08T23:27:44.999Z,5.53
2018-12-08T23:30:14.403Z,5.07
2018-12-08T23:32:43.449Z,5.10
2018-12-08T23:35:12.705Z,5.60
2018-12-08T23:37:42.692Z,5.33
2018-12-08T23:40:11.611Z,5.90
2018-12-08T23:42:40.787Z,4.70
2018-12-08T23:45:10.527Z,5.10
2018-12-08T23:47:39.474Z,4.97
2018-12-08T23:50:10.000Z,5.20
2018-12-08T23:52:39.236Z,4.77
2018-12-08T23:55:08.599Z,4.40
2018-12-08T23:57:37.870Z,3.93
